Time;durP1;ratioP1;P1;durP2;ratioP2;P2;SDS_P1;SDS_P2;PMS_P1;PMS_P2;Temp;Humidity;BMP_temperature;BMP_pressure;BME280_temperature;BME280_humidity;BME280_pressure;Samples;Min_cycle;Max_cycle;Signal;HPM_P1;HPM_P2
2021/10/02 00:48:29;;;;;;;13.1;9.9;;;;;;;5.04;100;99089.69;;;;
2021/10/02 00:58:29;;;;;;;13;9.9;;;;;;;5.11;100;99089.45;;;;
2021/10/02 01:08:26;;;;;;;10.3;9.3;;;;;;;5.11;100;99083.3;;;;
2021/10/02 01:18:25;;;;;;;10.3;8;;;;;;;5.17;100;99082.28;;;;
2021/10/02 01:28:23;;;;;;;8.8;7.9;;;;;;;4.98;100;99068.55;;;;
2021/10/02 01:48:20;;;;;;;9.4;7.5;;;;;;;4.79;100;99068.16;;;;
2021/10/02 01:58:19;;;;;;;10.5;8.7;;;;;;;4.65;100;99048.31;;;;
2021/10/02 02:08:18;;;;;;;9.6;6.9;;;;;;;4.55;100;99054.4;;;;
2021/10/02 02:18:16;;;;;;;12.5;9.1;;;;;;;4.66;100;99051.8;;;;
2021/10/02 02:28:15;;;;;;;11.6;8.7;;;;;;;4.6;100;99042.16;;;;
2021/10/02 02:38:13;;;;;;;11.5;8.4;;;;;;;4.64;100;99037.91;;;;
2021/10/02 02:48:12;;;;;;;8.7;5.9;;;;;;;4.66;100;99020.56;;;;
2021/10/02 02:58:11;;;;;;;8.4;7.3;;;;;;;4.73;100;99017.66;;;;
2021/10/02 03:08:10;;;;;;;7.6;6.1;;;;;;;4.77;100;99024.09;;;;
2021/10/02 03:18:08;;;;;;;11.2;6;;;;;;;4.7;100;99010.17;;;;
2021/10/02 03:28:11;;;;;;;8.3;6.4;;;;;;;4.7;100;99016.33;;;;
2021/10/02 03:38:10;;;;;;;10.5;5.9;;;;;;;4.68;100;99021.13;;;;
2021/10/02 03:48:06;;;;;;;7.3;6;;;;;;;4.66;100;99007.22;;;;
2021/10/02 03:58:06;;;;;;;6.5;4.9;;;;;;;4.67;100;99006.16;;;;
2021/10/02 04:08:01;;;;;;;9.1;5.2;;;;;;;4.65;100;99008.27;;;;
2021/10/02 04:17:59;;;;;;;7.7;5.3;;;;;;;4.49;100;99003.91;;;;
2021/10/02 04:27:58;;;;;;;6.3;5.2;;;;;;;4.34;100;99009.95;;;;
2021/10/02 04:37:57;;;;;;;6;4.8;;;;;;;4.26;100;99006.97;;;;
2021/10/02 04:47:55;;;;;;;8.3;5.9;;;;;;;4.28;100;99012.84;;;;
2021/10/02 04:57:54;;;;;;;8.3;4.9;;;;;;;4.39;100;99015.33;;;;
2021/10/02 05:07:52;;;;;;;6.3;5.2;;;;;;;4.6;100;99010.93;;;;
2021/10/02 05:17:51;;;;;;;6.9;5.2;;;;;;;4.75;100;99011.02;;;;
2021/10/02 05:27:49;;;;;;;7.2;4.4;;;;;;;4.95;100;99004.97;;;;
2021/10/02 05:37:48;;;;;;;7;5.3;;;;;;;5.11;100;99017.31;;;;
2021/10/02 05:47:47;;;;;;;8.1;5.9;;;;;;;5.55;100;99017.74;;;;
2021/10/02 05:57:45;;;;;;;7.6;5.6;;;;;;;5.77;100;99026.33;;;;
2021/10/02 06:07:44;;;;;;;6.5;4.5;;;;;;;6;100;99025.84;;;;
2021/10/02 06:17:42;;;;;;;11.7;7.8;;;;;;;6.48;100;99015.67;;;;
2021/10/02 06:27:41;;;;;;;8.6;5.8;;;;;;;6.62;100;99026.63;;;;
2021/10/02 06:37:40;;;;;;;11.4;8;;;;;;;7.27;100;99025.61;;;;
2021/10/02 06:47:39;;;;;;;17.7;8.1;;;;;;;7.58;100;99019.02;;;;
2021/10/02 06:57:38;;;;;;;8.4;6.4;;;;;;;8.09;100;99017.59;;;;
2021/10/02 07:07:37;;;;;;;9.2;7.6;;;;;;;8.5;100;99022.66;;;;
2021/10/02 07:17:36;;;;;;;12.4;8.6;;;;;;;9.08;100;99026.88;;;;
2021/10/02 07:27:35;;;;;;;8.5;6.5;;;;;;;9.67;100;99030.97;;;;
2021/10/02 07:37:34;;;;;;;8.8;6.5;;;;;;;10.17;100;99034.04;;;;
2021/10/02 07:47:33;;;;;;;10.5;8;;;;;;;10.8;100;99043.17;;;;
2021/10/02 07:57:32;;;;;;;8.6;6.5;;;;;;;11.21;100;99029.7;;;;
2021/10/02 08:07:31;;;;;;;8.9;7;;;;;;;11.84;100;99039.73;;;;
2021/10/02 08:17:31;;;;;;;9.6;6.7;;;;;;;12.44;100;99022.09;;;;
2021/10/02 08:27:30;;;;;;;17.1;9;;;;;;;12.98;100;99029.05;;;;
2021/10/02 08:37:30;;;;;;;9;7;;;;;;;13.61;100;99033.25;;;;
2021/10/02 08:47:30;;;;;;;14;7.5;;;;;;;14.28;100;99025.47;;;;
2021/10/02 08:57:29;;;;;;;13.1;7.5;;;;;;;14.78;100;99025.73;;;;
2021/10/02 09:07:29;;;;;;;9.8;7.1;;;;;;;15.37;100;99012.22;;;;
2021/10/02 09:17:29;;;;;;;13.1;8.1;;;;;;;15.99;100;99018.53;;;;
2021/10/02 09:27:29;;;;;;;10.1;8.1;;;;;;;16.45;100;99013.96;;;;
2021/10/02 09:37:29;;;;;;;13;8.2;;;;;;;16.89;100;99002.29;;;;
2021/10/02 09:47:32;;;;;;;16.8;9.7;;;;;;;17.4;100;99000.02;;;;
2021/10/02 09:57:29;;;;;;;11.4;7.3;;;;;;;17.58;100;98990.5;;;;
2021/10/02 10:07:29;;;;;;;9.7;7.6;;;;;;;17.84;100;98999.06;;;;
2021/10/02 10:17:32;;;;;;;9.6;7.4;;;;;;;18.38;100;98985;;;;
2021/10/02 10:27:29;;;;;;;9.6;7.6;;;;;;;18.53;100;98976.85;;;;
2021/10/02 10:37:30;;;;;;;14.7;7.9;;;;;;;18.65;100;98978.73;;;;
2021/10/02 10:47:30;;;;;;;11.9;9.5;;;;;;;19.01;100;98975.75;;;;
2021/10/02 10:57:30;;;;;;;11.9;7.9;;;;;;;19.47;100;98956.94;;;;
2021/10/02 11:07:31;;;;;;;12.2;7.6;;;;;;;19.44;100;98946.69;;;;
2021/10/02 11:17:31;;;;;;;11.3;7;;;;;;;19.51;100;98928.51;;;;
2021/10/02 11:27:32;;;;;;;10;7.9;;;;;;;19.69;100;98928.89;;;;
2021/10/02 11:37:47;;;;;;;8.9;5.7;;;;;;;19.81;100;98920.56;;;;
2021/10/02 11:47:36;;;;;;;13;7.5;;;;;;;20.01;100;98918.59;;;;
2021/10/02 11:57:33;;;;;;;9.6;7.6;;;;;;;20.01;100;98913.92;;;;
2021/10/02 12:07:33;;;;;;;7.9;6.1;;;;;;;20.09;100;98912.12;;;;
2021/10/02 12:17:34;;;;;;;8.4;6.6;;;;;;;20.02;100;98904.56;;;;
2021/10/02 12:27:35;;;;;;;10.2;6.2;;;;;;;20.42;100;98906.09;;;;
2021/10/02 12:37:35;;;;;;;8;5.8;;;;;;;20.46;95.80078;98904.2;;;;
2021/10/02 12:47:36;;;;;;;7.7;5.5;;;;;;;20.46;100;98891.31;;;;
2021/10/02 12:57:36;;;;;;;7.9;5.1;;;;;;;20.3;95.44727;98896.12;;;;
2021/10/02 13:07:44;;;;;;;8.8;6.2;;;;;;;20.06;100;98883.51;;;;
2021/10/02 13:17:37;;;;;;;10;6.6;;;;;;;20.51;96.48926;98879.27;;;;
2021/10/02 13:27:39;;;;;;;11.2;6.1;;;;;;;20.38;99.39648;98875.11;;;;
2021/10/02 13:37:38;;;;;;;9.3;5.4;;;;;;;20.47;93.83008;98875.67;;;;
2021/10/02 13:47:39;;;;;;;8.2;5.7;;;;;;;20.73;91.35645;98875.7;;;;
2021/10/02 13:57:42;;;;;;;9.9;5;;;;;;;20.91;98.90625;98865.02;;;;
2021/10/02 14:07:40;;;;;;;6.6;4.9;;;;;;;20.72;96.375;98868.64;;;;
2021/10/02 14:17:40;;;;;;;12.7;7.6;;;;;;;20.58;86.98926;98860.22;;;;
2021/10/02 14:27:41;;;;;;;9.2;6.1;;;;;;;20.53;88.18848;98860.52;;;;
2021/10/02 14:37:41;;;;;;;10;5.9;;;;;;;20.54;89.82324;98862.9;;;;
2021/10/02 14:47:42;;;;;;;7.8;4.7;;;;;;;20.29;93.54102;98866.36;;;;
2021/10/02 14:57:44;;;;;;;11.2;5.3;;;;;;;20.28;94.64063;98865.56;;;;
2021/10/02 15:07:42;;;;;;;6.9;5.1;;;;;;;19.99;99.45996;98857.98;;;;
2021/10/02 15:17:43;;;;;;;12.3;6.2;;;;;;;19.56;100;98856.36;;;;
2021/10/02 15:27:43;;;;;;;11.5;6.7;;;;;;;19.29;99.96777;98862.78;;;;
2021/10/02 15:37:44;;;;;;;14.1;8.4;;;;;;;18.64;100;98851.55;;;;
2021/10/02 15:47:44;;;;;;;11.4;6.1;;;;;;;17.93;100;98860.65;;;;
2021/10/02 15:57:44;;;;;;;7.4;5.1;;;;;;;17.27;100;98868.48;;;;
2021/10/02 16:07:44;;;;;;;8.8;6.5;;;;;;;16.6;100;98875.34;;;;
2021/10/02 16:17:44;;;;;;;14;8.9;;;;;;;15.89;100;98874.06;;;;
2021/10/02 16:27:44;;;;;;;12.3;9.1;;;;;;;15.19;100;98869.52;;;;
2021/10/02 16:37:44;;;;;;;20.2;16;;;;;;;14.54;100;98879;;;;
2021/10/02 16:47:45;;;;;;;17.8;16.1;;;;;;;14.04;100;98867.97;;;;
2021/10/02 16:57:43;;;;;;;26.1;22.2;;;;;;;13.68;100;98876.48;;;;
2021/10/02 17:07:43;;;;;;;31.5;28.1;;;;;;;13.23;100;98875.2;;;;
2021/10/02 17:17:42;;;;;;;57.8;45.3;;;;;;;12.9;100;98874.83;;;;
2021/10/02 17:27:42;;;;;;;33.2;28.9;;;;;;;12.59;100;98870.3;;;;
2021/10/02 17:37:41;;;;;;;52.2;43.6;;;;;;;12.31;100;98870.82;;;;
2021/10/02 17:47:40;;;;;;;12.8;11.4;;;;;;;12.07;100;98871.98;;;;
2021/10/02 17:57:40;;;;;;;15.1;11.2;;;;;;;12.02;100;98882.91;;;;
2021/10/02 18:07:39;;;;;;;52.6;46.7;;;;;;;11.8;100;98888.32;;;;
2021/10/02 18:17:38;;;;;;;26.5;23.6;;;;;;;11.48;100;98888.55;;;;
2021/10/02 18:27:40;;;;;;;15.1;12.8;;;;;;;11.1;100;98891.56;;;;
2021/10/02 18:37:42;;;;;;;13.4;9.6;;;;;;;10.88;100;98896.89;;;;
2021/10/02 18:47:36;;;;;;;20;12.5;;;;;;;10.79;100;98896.01;;;;
2021/10/02 18:57:35;;;;;;;31.5;24.8;;;;;;;10.58;100;98884.84;;;;
2021/10/02 19:07:34;;;;;;;22.7;19.2;;;;;;;10.54;100;98874.95;;;;
2021/10/02 19:17:33;;;;;;;18;15.2;;;;;;;10.28;100;98885.41;;;;
2021/10/02 19:27:36;;;;;;;16.6;13.6;;;;;;;10.02;100;98886.94;;;;
2021/10/02 19:37:33;;;;;;;16.1;12.4;;;;;;;9.83;100;98888.87;;;;
2021/10/02 19:47:33;;;;;;;20.1;15.2;;;;;;;9.82;100;98887.3;;;;
2021/10/02 19:57:33;;;;;;;17.8;14.8;;;;;;;9.7;100;98895.81;;;;
2021/10/02 20:07:28;;;;;;;20;14.6;;;;;;;9.68;100;98876.48;;;;
2021/10/02 20:17:27;;;;;;;16;12.7;;;;;;;9.64;100;98869.28;;;;
2021/10/02 20:27:26;;;;;;;33.5;29.9;;;;;;;9.47;100;98877.9;;;;
2021/10/02 20:37:25;;;;;;;36.7;28.5;;;;;;;9.32;100;98878.92;;;;
2021/10/02 20:47:24;;;;;;;36.3;30.1;;;;;;;9.02;100;98869.39;;;;
2021/10/02 20:57:23;;;;;;;26.3;21.4;;;;;;;8.82;100;98866.98;;;;
2021/10/02 21:07:21;;;;;;;36.4;29.2;;;;;;;8.61;100;98879.06;;;;
2021/10/02 21:17:20;;;;;;;29.6;23;;;;;;;8.44;100;98876.05;;;;
2021/10/02 21:27:19;;;;;;;39.7;28.5;;;;;;;8.29;100;98879.72;;;;
2021/10/02 21:37:18;;;;;;;33.6;28.2;;;;;;;8.16;100;98866.92;;;;
2021/10/02 21:47:16;;;;;;;37.3;29.5;;;;;;;8.17;100;98868.53;;;;
2021/10/02 21:57:15;;;;;;;24.2;21.6;;;;;;;8.07;100;98845.28;;;;
2021/10/02 22:07:14;;;;;;;25.2;15.9;;;;;;;8;100;98830.59;;;;
2021/10/02 22:17:13;;;;;;;25.9;17.7;;;;;;;7.87;100;98825.91;;;;
2021/10/02 22:27:11;;;;;;;17.2;14.7;;;;;;;7.71;100;98819.88;;;;
2021/10/02 22:37:10;;;;;;;21.4;15.8;;;;;;;7.54;100;98798.84;;;;
2021/10/02 22:47:09;;;;;;;20.8;12.9;;;;;;;7.44;100;98793.58;;;;
2021/10/02 22:57:08;;;;;;;15.2;12.8;;;;;;;7.36;100;98799.53;;;;
2021/10/02 23:07:06;;;;;;;19.3;16.3;;;;;;;7.29;100;98811.69;;;;
2021/10/02 23:17:05;;;;;;;38.1;29.7;;;;;;;7.14;100;98822.52;;;;
2021/10/02 23:27:06;;;;;;;26.5;23.7;;;;;;;6.97;100;98814.86;;;;
2021/10/02 23:37:02;;;;;;;33.9;26;;;;;;;6.88;100;98828.02;;;;
2021/10/02 23:47:01;;;;;;;34.3;28.4;;;;;;;6.77;100;98813.09;;;;
2021/10/02 23:57:00;;;;;;;34.5;30;;;;;;;6.75;100;98823.29;;;;
